sensor_id;sensor_type;location;lat;lon;timestamp;pressure;altitude;pressure_sealevel;temperature;humidity
75497;BME280;64074;47.540;19.072;2023-05-07T00:02:43;100568.66;;;17.68;66.86
75497;BME280;64074;47.540;19.072;2023-05-07T00:05:47;100569.00;;;17.58;67.20
75497;BME280;64074;47.540;19.072;2023-05-07T00:08:56;100568.56;;;17.56;67.32
75497;BME280;64074;47.540;19.072;2023-05-07T00:12:01;100565.56;;;17.28;68.50
75497;BME280;64074;47.540;19.072;2023-05-07T00:15:12;100562.81;;;17.28;68.47
75497;BME280;64074;47.540;19.072;2023-05-07T00:18:26;100576.53;;;17.28;68.54
75497;BME280;64074;47.540;19.072;2023-05-07T00:21:50;100572.25;;;17.18;69.14
75497;BME280;64074;47.540;19.072;2023-05-07T00:25:09;100566.31;;;17.16;69.48
75497;BME280;64074;47.540;19.072;2023-05-07T00:28:33;100572.13;;;17.14;69.92
75497;BME280;64074;47.540;19.072;2023-05-07T00:31:57;100579.53;;;17.14;69.87
75497;BME280;64074;47.540;19.072;2023-05-07T00:35:20;100574.53;;;17.16;70.20
75497;BME280;64074;47.540;19.072;2023-05-07T00:38:42;100581.00;;;17.11;70.39
75497;BME280;64074;47.540;19.072;2023-05-07T00:42:04;100580.31;;;16.94;70.82
75497;BME280;64074;47.540;19.072;2023-05-07T00:45:16;100587.94;;;16.88;71.02
75497;BME280;64074;47.540;19.072;2023-05-07T00:48:46;100585.03;;;17.14;70.24
75497;BME280;64074;47.540;19.072;2023-05-07T00:52:15;100580.69;;;17.13;70.82
75497;BME280;64074;47.540;19.072;2023-05-07T00:55:26;100589.16;;;17.20;70.89
75497;BME280;64074;47.540;19.072;2023-05-07T00:58:52;100586.56;;;17.23;70.73
75497;BME280;64074;47.540;19.072;2023-05-07T01:02:17;100585.16;;;17.17;71.10
75497;BME280;64074;47.540;19.072;2023-05-07T01:05:37;100596.00;;;17.14;71.19
75497;BME280;64074;47.540;19.072;2023-05-07T01:08:46;100590.03;;;17.12;71.31
75497;BME280;64074;47.540;19.072;2023-05-07T01:11:51;100586.25;;;16.96;72.61
75497;BME280;64074;47.540;19.072;2023-05-07T01:15:02;100586.56;;;16.73;73.35
75497;BME280;64074;47.540;19.072;2023-05-07T01:18:23;100587.88;;;16.67;73.00
75497;BME280;64074;47.540;19.072;2023-05-07T01:21:37;100595.00;;;16.89;72.26
75497;BME280;64074;47.540;19.072;2023-05-07T01:24:55;100600.81;;;16.87;72.38
75497;BME280;64074;47.540;19.072;2023-05-07T01:28:07;100601.66;;;16.79;72.89
75497;BME280;64074;47.540;19.072;2023-05-07T01:31:14;100612.28;;;16.81;72.92
75497;BME280;64074;47.540;19.072;2023-05-07T01:34:22;100600.47;;;16.51;73.15
75497;BME280;64074;47.540;19.072;2023-05-07T01:37:27;100607.56;;;16.52;72.93
75497;BME280;64074;47.540;19.072;2023-05-07T01:40:32;100598.50;;;16.60;72.53
75497;BME280;64074;47.540;19.072;2023-05-07T01:43:44;100602.88;;;16.14;73.58
75497;BME280;64074;47.540;19.072;2023-05-07T01:46:56;100592.84;;;16.27;73.60
75497;BME280;64074;47.540;19.072;2023-05-07T01:50:07;100586.09;;;16.24;73.47
75497;BME280;64074;47.540;19.072;2023-05-07T01:53:18;100590.75;;;16.24;73.61
75497;BME280;64074;47.540;19.072;2023-05-07T01:56:25;100593.13;;;16.43;72.81
75497;BME280;64074;47.540;19.072;2023-05-07T01:59:35;100580.91;;;16.31;72.38
75497;BME280;64074;47.540;19.072;2023-05-07T02:02:42;100583.03;;;16.26;72.93
75497;BME280;64074;47.540;19.072;2023-05-07T02:06:01;100570.94;;;16.27;73.17
75497;BME280;64074;47.540;19.072;2023-05-07T02:09:14;100575.28;;;16.37;72.99
75497;BME280;64074;47.540;19.072;2023-05-07T02:12:29;100564.72;;;16.18;73.52
75497;BME280;64074;47.540;19.072;2023-05-07T02:15:43;100574.47;;;16.27;73.13
75497;BME280;64074;47.540;19.072;2023-05-07T02:19:06;100583.78;;;16.35;72.84
75497;BME280;64074;47.540;19.072;2023-05-07T02:22:23;100589.16;;;16.23;72.84
75497;BME280;64074;47.540;19.072;2023-05-07T02:25:41;100582.72;;;16.19;72.84
75497;BME280;64074;47.540;19.072;2023-05-07T02:29:10;100581.47;;;16.16;73.22
75497;BME280;64074;47.540;19.072;2023-05-07T02:32:38;100571.31;;;16.08;73.09
75497;BME280;64074;47.540;19.072;2023-05-07T02:36:06;100573.09;;;16.04;73.75
75497;BME280;64074;47.540;19.072;2023-05-07T02:39:38;100574.56;;;16.02;73.86
75497;BME280;64074;47.540;19.072;2023-05-07T02:42:42;100566.69;;;16.00;73.65
75497;BME280;64074;47.540;19.072;2023-05-07T02:46:06;100566.06;;;15.94;73.53
75497;BME280;64074;47.540;19.072;2023-05-07T02:49:34;100579.59;;;15.82;73.79
75497;BME280;64074;47.540;19.072;2023-05-07T02:52:55;100585.72;;;15.79;74.24
75497;BME280;64074;47.540;19.072;2023-05-07T02:56:15;100576.38;;;15.54;74.95
75497;BME280;64074;47.540;19.072;2023-05-07T02:59:26;100582.19;;;15.70;73.81
75497;BME280;64074;47.540;19.072;2023-05-07T03:02:37;100575.78;;;15.66;73.94
75497;BME280;64074;47.540;19.072;2023-05-07T03:05:45;100570.28;;;15.40;75.01
75497;BME280;64074;47.540;19.072;2023-05-07T03:08:59;100580.06;;;15.24;75.67
75497;BME280;64074;47.540;19.072;2023-05-07T03:12:13;100576.56;;;15.66;74.19
75497;BME280;64074;47.540;19.072;2023-05-07T03:15:34;100578.31;;;15.71;73.82
75497;BME280;64074;47.540;19.072;2023-05-07T03:18:50;100575.41;;;15.76;73.51
75497;BME280;64074;47.540;19.072;2023-05-07T03:22:17;100587.34;;;15.72;73.42
75497;BME280;64074;47.540;19.072;2023-05-07T03:25:43;100582.34;;;15.74;72.75
75497;BME280;64074;47.540;19.072;2023-05-07T03:28:54;100588.75;;;15.43;73.00
75497;BME280;64074;47.540;19.072;2023-05-07T03:32:11;100587.66;;;15.70;72.72
75497;BME280;64074;47.540;19.072;2023-05-07T03:35:14;100585.25;;;15.68;72.36
75497;BME280;64074;47.540;19.072;2023-05-07T03:38:17;100583.16;;;15.65;72.59
75497;BME280;64074;47.540;19.072;2023-05-07T03:41:28;100588.97;;;15.64;72.27
75497;BME280;64074;47.540;19.072;2023-05-07T03:44:34;100578.81;;;15.64;72.55
75497;BME280;64074;47.540;19.072;2023-05-07T03:47:45;100579.59;;;15.48;73.02
75497;BME280;64074;47.540;19.072;2023-05-07T03:50:59;100581.56;;;15.64;72.60
75497;BME280;64074;47.540;19.072;2023-05-07T03:54:16;100578.19;;;15.67;72.29
75497;BME280;64074;47.540;19.072;2023-05-07T03:57:43;100589.75;;;15.64;72.88
75497;BME280;64074;47.540;19.072;2023-05-07T04:00:51;100591.03;;;15.58;73.33
75497;BME280;64074;47.540;19.072;2023-05-07T04:04:01;100591.03;;;15.58;73.50
75497;BME280;64074;47.540;19.072;2023-05-07T04:07:09;100599.19;;;15.32;74.37
75497;BME280;64074;47.540;19.072;2023-05-07T04:10:16;100598.41;;;15.49;73.87
75497;BME280;64074;47.540;19.072;2023-05-07T04:13:24;100605.47;;;15.42;74.33
75497;BME280;64074;47.540;19.072;2023-05-07T04:16:35;100604.50;;;15.29;74.85
75497;BME280;64074;47.540;19.072;2023-05-07T04:19:45;100606.13;;;15.47;74.12
75497;BME280;64074;47.540;19.072;2023-05-07T04:22:56;100605.84;;;15.66;73.35
75497;BME280;64074;47.540;19.072;2023-05-07T04:26:07;100608.06;;;15.38;74.48
75497;BME280;64074;47.540;19.072;2023-05-07T04:29:16;100613.72;;;15.67;73.60
75497;BME280;64074;47.540;19.072;2023-05-07T04:32:27;100610.03;;;15.63;74.09
75497;BME280;64074;47.540;19.072;2023-05-07T04:35:46;100614.81;;;15.84;72.99
75497;BME280;64074;47.540;19.072;2023-05-07T04:39:02;100610.66;;;15.86;72.81
75497;BME280;64074;47.540;19.072;2023-05-07T04:42:06;100616.56;;;15.97;72.80
75497;BME280;64074;47.540;19.072;2023-05-07T04:45:12;100622.66;;;16.03;72.32
75497;BME280;64074;47.540;19.072;2023-05-07T04:48:25;100616.88;;;16.04;72.40
75497;BME280;64074;47.540;19.072;2023-05-07T04:51:47;100611.75;;;15.85;73.04
75497;BME280;64074;47.540;19.072;2023-05-07T04:55:09;100616.00;;;16.29;71.43
75497;BME280;64074;47.540;19.072;2023-05-07T04:58:29;100629.94;;;16.54;71.29
75497;BME280;64074;47.540;19.072;2023-05-07T05:01:51;100626.53;;;16.57;70.67
75497;BME280;64074;47.540;19.072;2023-05-07T05:05:14;100627.31;;;16.57;70.96
75497;BME280;64074;47.540;19.072;2023-05-07T05:08:36;100628.50;;;16.48;71.03
75497;BME280;64074;47.540;19.072;2023-05-07T05:11:59;100632.38;;;16.47;71.08
75497;BME280;64074;47.540;19.072;2023-05-07T05:15:18;100637.09;;;16.38;71.55
75497;BME280;64074;47.540;19.072;2023-05-07T05:18:46;100640.41;;;16.52;71.61
75497;BME280;64074;47.540;19.072;2023-05-07T05:22:06;100642.78;;;16.71;71.36
75497;BME280;64074;47.540;19.072;2023-05-07T05:25:26;100646.81;;;16.56;71.38
75497;BME280;64074;47.540;19.072;2023-05-07T05:28:51;100648.59;;;16.69;71.40
75497;BME280;64074;47.540;19.072;2023-05-07T05:32:13;100647.38;;;16.41;72.07
75497;BME280;64074;47.540;19.072;2023-05-07T05:35:30;100647.94;;;16.55;71.81
75497;BME280;64074;47.540;19.072;2023-05-07T05:38:39;100635.22;;;16.68;71.70
75497;BME280;64074;47.540;19.072;2023-05-07T05:41:50;100638.38;;;16.87;70.78
75497;BME280;64074;47.540;19.072;2023-05-07T05:44:59;100635.75;;;16.90;71.25
75497;BME280;64074;47.540;19.072;2023-05-07T05:48:07;100640.31;;;17.07;70.46
75497;BME280;64074;47.540;19.072;2023-05-07T05:51:18;100631.63;;;17.05;70.20
75497;BME280;64074;47.540;19.072;2023-05-07T05:54:34;100628.72;;;17.31;70.03
75497;BME280;64074;47.540;19.072;2023-05-07T05:57:42;100630.75;;;17.22;69.46
75497;BME280;64074;47.540;19.072;2023-05-07T06:00:50;100634.28;;;17.22;70.10
75497;BME280;64074;47.540;19.072;2023-05-07T06:04:06;100637.63;;;17.49;68.83
75497;BME280;64074;47.540;19.072;2023-05-07T06:07:26;100628.88;;;17.56;68.93
75497;BME280;64074;47.540;19.072;2023-05-07T06:10:48;100622.88;;;17.62;68.93
75497;BME280;64074;47.540;19.072;2023-05-07T06:14:09;100618.59;;;17.73;67.76
75497;BME280;64074;47.540;19.072;2023-05-07T06:17:17;100623.19;;;17.81;67.92
75497;BME280;64074;47.540;19.072;2023-05-07T06:20:26;100625.59;;;17.83;67.67
75497;BME280;64074;47.540;19.072;2023-05-07T06:23:30;100631.97;;;17.75;67.83
75497;BME280;64074;47.540;19.072;2023-05-07T06:26:40;100632.63;;;17.93;67.22
75497;BME280;64074;47.540;19.072;2023-05-07T06:29:50;100630.72;;;18.05;67.34
75497;BME280;64074;47.540;19.072;2023-05-07T06:33:07;100631.00;;;18.25;67.06
75497;BME280;64074;47.540;19.072;2023-05-07T06:36:18;100639.16;;;18.00;67.53
75497;BME280;64074;47.540;19.072;2023-05-07T06:39:34;100635.44;;;18.17;67.21
75497;BME280;64074;47.540;19.072;2023-05-07T06:42:47;100636.72;;;18.32;66.51
75497;BME280;64074;47.540;19.072;2023-05-07T06:46:04;100633.03;;;18.73;64.57
75497;BME280;64074;47.540;19.072;2023-05-07T06:49:13;100628.34;;;18.73;64.82
75497;BME280;64074;47.540;19.072;2023-05-07T06:52:24;100626.75;;;18.97;63.07
75497;BME280;64074;47.540;19.072;2023-05-07T06:55:39;100633.53;;;19.52;61.42
75497;BME280;64074;47.540;19.072;2023-05-07T06:58:54;100638.81;;;19.57;62.20
75497;BME280;64074;47.540;19.072;2023-05-07T07:02:23;100633.22;;;20.09;60.93
75497;BME280;64074;47.540;19.072;2023-05-07T07:05:53;100631.88;;;20.47;59.85
75497;BME280;64074;47.540;19.072;2023-05-07T07:09:12;100631.81;;;20.59;58.72
75497;BME280;64074;47.540;19.072;2023-05-07T07:12:35;100634.94;;;20.29;59.22
75497;BME280;64074;47.540;19.072;2023-05-07T07:15:58;100640.22;;;20.98;57.10
75497;BME280;64074;47.540;19.072;2023-05-07T07:19:16;100632.56;;;21.07;56.45
75497;BME280;64074;47.540;19.072;2023-05-07T07:22:29;100636.03;;;20.56;57.50
75497;BME280;64074;47.540;19.072;2023-05-07T07:26:02;100640.50;;;20.45;58.64
75497;BME280;64074;47.540;19.072;2023-05-07T07:29:18;100648.03;;;20.33;59.00
75497;BME280;64074;47.540;19.072;2023-05-07T07:32:29;100655.59;;;20.51;58.34
75497;BME280;64074;47.540;19.072;2023-05-07T07:36:07;100653.50;;;20.61;58.14
75497;BME280;64074;47.540;19.072;2023-05-07T07:39:38;100648.50;;;20.50;58.66
75497;BME280;64074;47.540;19.072;2023-05-07T07:42:58;100651.78;;;20.72;58.17
75497;BME280;64074;47.540;19.072;2023-05-07T07:46:16;100661.56;;;20.85;56.66
75497;BME280;64074;47.540;19.072;2023-05-07T07:49:36;100667.03;;;21.16;55.80
75497;BME280;64074;47.540;19.072;2023-05-07T07:53:00;100665.78;;;21.30;55.81
75497;BME280;64074;47.540;19.072;2023-05-07T07:56:27;100669.19;;;21.58;54.10
75497;BME280;64074;47.540;19.072;2023-05-07T07:59:49;100660.97;;;21.42;53.99
75497;BME280;64074;47.540;19.072;2023-05-07T08:03:12;100665.00;;;21.29;53.86
75497;BME280;64074;47.540;19.072;2023-05-07T08:06:35;100666.63;;;21.49;53.81
75497;BME280;64074;47.540;19.072;2023-05-07T08:09:44;100665.84;;;21.68;52.35
75497;BME280;64074;47.540;19.072;2023-05-07T08:12:52;100664.72;;;21.89;51.22
75497;BME280;64074;47.540;19.072;2023-05-07T08:16:01;100660.06;;;21.93;50.91
75497;BME280;64074;47.540;19.072;2023-05-07T08:19:11;100665.59;;;22.12;48.94
75497;BME280;64074;47.540;19.072;2023-05-07T08:22:21;100660.41;;;21.91;49.23
75497;BME280;64074;47.540;19.072;2023-05-07T08:25:35;100657.41;;;22.00;47.70
75497;BME280;64074;47.540;19.072;2023-05-07T08:28:56;100651.03;;;21.76;46.55
75497;BME280;64074;47.540;19.072;2023-05-07T08:32:12;100648.88;;;22.05;47.63
75497;BME280;64074;47.540;19.072;2023-05-07T08:35:16;100647.03;;;22.32;47.20
75497;BME280;64074;47.540;19.072;2023-05-07T08:38:26;100648.75;;;22.40;46.92
75497;BME280;64074;47.540;19.072;2023-05-07T08:41:34;100652.09;;;22.30;47.78
75497;BME280;64074;47.540;19.072;2023-05-07T08:44:38;100650.25;;;22.15;47.74
75497;BME280;64074;47.540;19.072;2023-05-07T08:47:56;100651.81;;;22.35;47.06
75497;BME280;64074;47.540;19.072;2023-05-07T08:51:18;100650.38;;;22.87;45.63
75497;BME280;64074;47.540;19.072;2023-05-07T08:54:37;100647.00;;;23.00;44.49
75497;BME280;64074;47.540;19.072;2023-05-07T08:57:58;100650.69;;;23.08;42.07
75497;BME280;64074;47.540;19.072;2023-05-07T09:01:23;100654.03;;;22.94;43.81
75497;BME280;64074;47.540;19.072;2023-05-07T09:04:35;100659.13;;;22.92;43.12
75497;BME280;64074;47.540;19.072;2023-05-07T09:07:40;100648.19;;;22.77;41.73
75497;BME280;64074;47.540;19.072;2023-05-07T09:10:52;100650.94;;;22.99;42.69
75497;BME280;64074;47.540;19.072;2023-05-07T09:14:07;100650.13;;;22.76;44.55
75497;BME280;64074;47.540;19.072;2023-05-07T09:17:26;100655.81;;;23.06;44.42
75497;BME280;64074;47.540;19.072;2023-05-07T09:20:42;100645.25;;;22.89;44.80
75497;BME280;64074;47.540;19.072;2023-05-07T09:23:53;100646.72;;;23.06;45.53
75497;BME280;64074;47.540;19.072;2023-05-07T09:27:04;100646.91;;;23.20;44.98
75497;BME280;64074;47.540;19.072;2023-05-07T09:30:13;100652.06;;;23.21;45.42
75497;BME280;64074;47.540;19.072;2023-05-07T09:33:27;100646.50;;;23.48;44.49
75497;BME280;64074;47.540;19.072;2023-05-07T09:36:45;100643.63;;;23.67;44.15
75497;BME280;64074;47.540;19.072;2023-05-07T09:39:56;100645.28;;;23.45;44.44
75497;BME280;64074;47.540;19.072;2023-05-07T09:43:11;100645.72;;;23.47;43.70
75497;BME280;64074;47.540;19.072;2023-05-07T09:46:53;100650.00;;;23.15;43.86
75497;BME280;64074;47.540;19.072;2023-05-07T09:50:19;100644.09;;;23.46;43.94
75497;BME280;64074;47.540;19.072;2023-05-07T09:53:39;100637.75;;;23.42;43.95
75497;BME280;64074;47.540;19.072;2023-05-07T09:57:01;100643.66;;;23.41;42.21
75497;BME280;64074;47.540;19.072;2023-05-07T10:00:25;100647.59;;;23.40;43.31
75497;BME280;64074;47.540;19.072;2023-05-07T10:03:43;100643.97;;;23.96;43.09
75497;BME280;64074;47.540;19.072;2023-05-07T10:06:54;100641.91;;;23.89;42.40
75497;BME280;64074;47.540;19.072;2023-05-07T10:10:26;100647.03;;;24.24;40.09
75497;BME280;64074;47.540;19.072;2023-05-07T10:13:42;100651.56;;;24.02;41.78
75497;BME280;64074;47.540;19.072;2023-05-07T10:17:12;100645.19;;;23.65;42.42
75497;BME280;64074;47.540;19.072;2023-05-07T10:20:36;100649.72;;;24.13;41.57
75497;BME280;64074;47.540;19.072;2023-05-07T10:24:09;100645.91;;;24.29;41.68
75497;BME280;64074;47.540;19.072;2023-05-07T10:27:25;100642.13;;;23.73;43.29
75497;BME280;64074;47.540;19.072;2023-05-07T10:30:58;100638.47;;;24.33;42.27
75497;BME280;64074;47.540;19.072;2023-05-07T10:34:22;100631.22;;;24.24;41.33
75497;BME280;64074;47.540;19.072;2023-05-07T10:37:30;100639.28;;;24.81;38.98
75497;BME280;64074;47.540;19.072;2023-05-07T10:40:41;100637.91;;;24.57;38.75
75497;BME280;64074;47.540;19.072;2023-05-07T10:44:08;100638.22;;;24.52;38.69
75497;BME280;64074;47.540;19.072;2023-05-07T10:47:22;100638.84;;;24.31;40.08
75497;BME280;64074;47.540;19.072;2023-05-07T10:51:20;100637.16;;;24.64;41.45
75497;BME280;64074;47.540;19.072;2023-05-07T10:54:44;100639.41;;;24.14;43.03
75497;BME280;64074;47.540;19.072;2023-05-07T10:57:55;100644.94;;;23.50;44.62
75497;BME280;64074;47.540;19.072;2023-05-07T11:01:06;100640.00;;;23.33;44.97
75497;BME280;64074;47.540;19.072;2023-05-07T11:04:21;100639.19;;;23.59;44.08
75497;BME280;64074;47.540;19.072;2023-05-07T11:07:55;100640.09;;;24.04;42.57
75497;BME280;64074;47.540;19.072;2023-05-07T11:11:03;100632.78;;;24.25;41.00
75497;BME280;64074;47.540;19.072;2023-05-07T11:18:02;100629.88;;;24.48;39.62
75497;BME280;64074;47.540;19.072;2023-05-07T11:21:38;100636.25;;;24.52;39.89
75497;BME280;64074;47.540;19.072;2023-05-07T11:24:56;100632.16;;;24.80;39.83
75497;BME280;64074;47.540;19.072;2023-05-07T11:28:06;100628.59;;;25.41;37.90
75497;BME280;64074;47.540;19.072;2023-05-07T11:31:14;100630.22;;;25.50;37.82
75497;BME280;64074;47.540;19.072;2023-05-07T11:34:25;100620.94;;;25.21;37.69
75497;BME280;64074;47.540;19.072;2023-05-07T11:37:35;100632.16;;;25.38;38.12
75497;BME280;64074;47.540;19.072;2023-05-07T11:40:54;100624.78;;;25.71;37.47
75497;BME280;64074;47.540;19.072;2023-05-07T11:43:59;100623.03;;;24.79;38.75
75497;BME280;64074;47.540;19.072;2023-05-07T11:47:02;100621.88;;;25.50;36.89
75497;BME280;64074;47.540;19.072;2023-05-07T11:50:16;100622.53;;;26.12;36.10
75497;BME280;64074;47.540;19.072;2023-05-07T11:53:42;100616.97;;;26.09;35.57
75497;BME280;64074;47.540;19.072;2023-05-07T11:56:55;100614.19;;;26.05;35.00
75497;BME280;64074;47.540;19.072;2023-05-07T12:00:06;100614.19;;;26.12;34.17
75497;BME280;64074;47.540;19.072;2023-05-07T12:03:22;100630.13;;;26.33;34.74
75497;BME280;64074;47.540;19.072;2023-05-07T12:06:54;100622.97;;;26.32;34.31
75497;BME280;64074;47.540;19.072;2023-05-07T12:10:12;100609.38;;;28.28;32.57
75497;BME280;64074;47.540;19.072;2023-05-07T12:13:42;100603.34;;;27.56;32.28
75497;BME280;64074;47.540;19.072;2023-05-07T12:17:13;100609.06;;;26.28;34.67
75497;BME280;64074;47.540;19.072;2023-05-07T12:20:30;100611.47;;;26.69;34.57
75497;BME280;64074;47.540;19.072;2023-05-07T12:23:41;100602.28;;;27.15;32.92
75497;BME280;64074;47.540;19.072;2023-05-07T12:26:56;100598.31;;;27.19;32.68
75497;BME280;64074;47.540;19.072;2023-05-07T12:30:13;100601.63;;;27.87;32.88
75497;BME280;64074;47.540;19.072;2023-05-07T12:33:29;100600.81;;;28.49;29.81
75497;BME280;64074;47.540;19.072;2023-05-07T12:36:39;100612.84;;;27.73;30.44
75497;BME280;64074;47.540;19.072;2023-05-07T12:39:49;100597.28;;;28.45;30.90
75497;BME280;64074;47.540;19.072;2023-05-07T12:42:59;100600.41;;;27.92;32.43
75497;BME280;64074;47.540;19.072;2023-05-07T12:46:26;100598.34;;;26.30;34.37
75497;BME280;64074;47.540;19.072;2023-05-07T12:49:50;100600.69;;;26.14;34.45
75497;BME280;64074;47.540;19.072;2023-05-07T12:53:05;100590.31;;;27.36;33.14
75497;BME280;64074;47.540;19.072;2023-05-07T12:56:15;100593.84;;;28.20;31.60
75497;BME280;64074;47.540;19.072;2023-05-07T12:59:37;100593.88;;;25.87;35.74
75497;BME280;64074;47.540;19.072;2023-05-07T13:02:46;100595.91;;;27.21;33.53
75497;BME280;64074;47.540;19.072;2023-05-07T13:05:58;100586.97;;;27.80;32.23
75497;BME280;64074;47.540;19.072;2023-05-07T13:09:22;100583.81;;;27.67;32.17
75497;BME280;64074;47.540;19.072;2023-05-07T13:12:34;100580.03;;;28.06;31.23
75497;BME280;64074;47.540;19.072;2023-05-07T13:16:06;100580.03;;;29.70;28.64
75497;BME280;64074;47.540;19.072;2023-05-07T13:19:15;100577.22;;;29.70;28.19
75497;BME280;64074;47.540;19.072;2023-05-07T13:22:29;100578.69;;;30.36;28.49
75497;BME280;64074;47.540;19.072;2023-05-07T13:26:06;100583.47;;;27.54;31.85
75497;BME280;64074;47.540;19.072;2023-05-07T13:29:34;100568.66;;;29.20;29.84
75497;BME280;64074;47.540;19.072;2023-05-07T13:32:55;100571.84;;;27.74;31.68
75497;BME280;64074;47.540;19.072;2023-05-07T13:36:09;100571.13;;;29.49;29.32
75497;BME280;64074;47.540;19.072;2023-05-07T13:39:36;100566.09;;;29.94;28.04
75497;BME280;64074;47.540;19.072;2023-05-07T13:42:58;100561.75;;;30.43;26.92
75497;BME280;64074;47.540;19.072;2023-05-07T13:46:16;100560.31;;;31.81;25.05
75497;BME280;64074;47.540;19.072;2023-05-07T13:49:21;100556.13;;;31.33;25.69
75497;BME280;64074;47.540;19.072;2023-05-07T13:52:30;100553.25;;;30.00;27.71
75497;BME280;64074;47.540;19.072;2023-05-07T13:55:39;100550.91;;;30.92;26.23
75497;BME280;64074;47.540;19.072;2023-05-07T13:58:53;100558.06;;;30.73;26.84
75497;BME280;64074;47.540;19.072;2023-05-07T14:02:05;100555.56;;;29.51;28.25
75497;BME280;64074;47.540;19.072;2023-05-07T14:05:09;100552.84;;;30.01;26.82
75497;BME280;64074;47.540;19.072;2023-05-07T14:08:22;100548.63;;;31.46;25.62
75497;BME280;64074;47.540;19.072;2023-05-07T14:11:34;100547.69;;;29.39;27.43
75497;BME280;64074;47.540;19.072;2023-05-07T14:14:48;100540.44;;;30.96;25.56
75497;BME280;64074;47.540;19.072;2023-05-07T14:18:00;100552.63;;;31.85;24.70
75497;BME280;64074;47.540;19.072;2023-05-07T14:21:36;100536.59;;;32.18;24.28
75497;BME280;64074;47.540;19.072;2023-05-07T14:25:00;100556.97;;;30.67;25.01
75497;BME280;64074;47.540;19.072;2023-05-07T14:28:24;100550.03;;;30.28;26.19
75497;BME280;64074;47.540;19.072;2023-05-07T14:31:34;100558.41;;;30.99;24.75
75497;BME280;64074;47.540;19.072;2023-05-07T14:35:04;100560.88;;;29.96;26.50
75497;BME280;64074;47.540;19.072;2023-05-07T14:38:33;100555.69;;;31.35;25.08
75497;BME280;64074;47.540;19.072;2023-05-07T14:41:57;100562.75;;;30.56;26.47
75497;BME280;64074;47.540;19.072;2023-05-07T14:45:17;100561.59;;;29.77;27.86
75497;BME280;64074;47.540;19.072;2023-05-07T14:48:44;100568.28;;;29.83;28.09
75497;BME280;64074;47.540;19.072;2023-05-07T14:51:57;100561.03;;;28.42;30.15
75497;BME280;64074;47.540;19.072;2023-05-07T14:55:03;100564.06;;;28.10;30.08
75497;BME280;64074;47.540;19.072;2023-05-07T14:58:13;100571.50;;;27.65;31.94
75497;BME280;64074;47.540;19.072;2023-05-07T15:01:28;100578.19;;;27.74;31.38
75497;BME280;64074;47.540;19.072;2023-05-07T15:04:42;100570.91;;;27.11;32.43
75497;BME280;64074;47.540;19.072;2023-05-07T15:07:57;100578.03;;;26.01;34.13
75497;BME280;64074;47.540;19.072;2023-05-07T15:11:17;100562.50;;;27.18;32.60
75497;BME280;64074;47.540;19.072;2023-05-07T15:14:36;100574.88;;;27.06;32.45
75497;BME280;64074;47.540;19.072;2023-05-07T15:18:23;100576.13;;;26.45;33.34
75497;BME280;64074;47.540;19.072;2023-05-07T15:21:33;100571.25;;;25.81;35.15
75497;BME280;64074;47.540;19.072;2023-05-07T15:25:04;100579.16;;;25.72;34.98
75497;BME280;64074;47.540;19.072;2023-05-07T15:28:15;100582.78;;;25.97;35.02
75497;BME280;64074;47.540;19.072;2023-05-07T15:31:25;100572.94;;;26.28;34.28
75497;BME280;64074;47.540;19.072;2023-05-07T15:34:48;100580.00;;;26.01;33.92
75497;BME280;64074;47.540;19.072;2023-05-07T15:38:04;100570.47;;;25.98;34.30
75497;BME280;64074;47.540;19.072;2023-05-07T15:41:24;100576.31;;;25.65;33.57
75497;BME280;64074;47.540;19.072;2023-05-07T15:45:00;100574.28;;;25.48;33.97
75497;BME280;64074;47.540;19.072;2023-05-07T15:48:28;100576.13;;;25.15;33.98
75497;BME280;64074;47.540;19.072;2023-05-07T15:51:49;100568.00;;;24.89;34.38
75497;BME280;64074;47.540;19.072;2023-05-07T15:55:10;100577.75;;;24.24;35.11
75497;BME280;64074;47.540;19.072;2023-05-07T15:58:38;100573.31;;;23.75;35.59
75497;BME280;64074;47.540;19.072;2023-05-07T16:01:48;100564.88;;;24.02;35.21
75497;BME280;64074;47.540;19.072;2023-05-07T16:04:51;100575.91;;;23.57;35.78
75497;BME280;64074;47.540;19.072;2023-05-07T16:08:02;100567.91;;;23.86;35.02
75497;BME280;64074;47.540;19.072;2023-05-07T16:11:10;100569.03;;;23.51;36.05
75497;BME280;64074;47.540;19.072;2023-05-07T16:14:17;100577.94;;;23.64;35.47
75497;BME280;64074;47.540;19.072;2023-05-07T16:17:25;100567.31;;;23.70;35.80
75497;BME280;64074;47.540;19.072;2023-05-07T16:20:35;100560.22;;;23.39;36.05
75497;BME280;64074;47.540;19.072;2023-05-07T16:23:45;100548.34;;;23.72;35.62
75497;BME280;64074;47.540;19.072;2023-05-07T16:26:55;100574.38;;;23.63;35.62
75497;BME280;64074;47.540;19.072;2023-05-07T16:30:01;100564.19;;;23.41;36.17
75497;BME280;64074;47.540;19.072;2023-05-07T16:33:08;100560.69;;;22.61;36.94
75497;BME280;64074;47.540;19.072;2023-05-07T16:36:15;100565.63;;;22.75;36.62
75497;BME280;64074;47.540;19.072;2023-05-07T16:39:19;100551.44;;;23.03;36.63
75497;BME280;64074;47.540;19.072;2023-05-07T16:42:22;100562.03;;;23.27;35.76
75497;BME280;64074;47.540;19.072;2023-05-07T16:45:33;100562.34;;;22.92;36.45
75497;BME280;64074;47.540;19.072;2023-05-07T16:49:09;100558.16;;;22.79;36.41
75497;BME280;64074;47.540;19.072;2023-05-07T16:52:33;100573.25;;;22.32;37.74
75497;BME280;64074;47.540;19.072;2023-05-07T16:55:54;100572.00;;;22.79;36.76
75497;BME280;64074;47.540;19.072;2023-05-07T16:59:18;100572.97;;;22.64;37.50